sensor_id;sensor_type;location;lat;lon;timestamp;P1;durP1;ratioP1;P2;durP2;ratioP2
1613;SDS011;800;48.824;9.346;2023-03-31T00:01:33;5.03;;;2.43;;
1613;SDS011;800;48.824;9.346;2023-03-31T00:04:00;5.33;;;2.03;;
1613;SDS011;800;48.824;9.346;2023-03-31T00:06:29;2.20;;;1.90;;
1613;SDS011;800;48.824;9.346;2023-03-31T00:09:06;4.33;;;1.97;;
1613;SDS011;800;48.824;9.346;2023-03-31T00:11:34;4.90;;;1.83;;
1613;SDS011;800;48.824;9.346;2023-03-31T00:13:59;3.40;;;1.60;;
1613;SDS011;800;48.824;9.346;2023-03-31T00:16:25;6.73;;;1.97;;
1613;SDS011;800;48.824;9.346;2023-03-31T00:18:51;4.13;;;1.90;;
1613;SDS011;800;48.824;9.346;2023-03-31T00:21:18;6.30;;;2.07;;
1613;SDS011;800;48.824;9.346;2023-03-31T00:24:01;10.40;;;2.20;;
1613;SDS011;800;48.824;9.346;2023-03-31T00:26:29;3.03;;;1.50;;
1613;SDS011;800;48.824;9.346;2023-03-31T00:28:55;7.43;;;2.27;;
1613;SDS011;800;48.824;9.346;2023-03-31T00:31:22;2.57;;;1.40;;
1613;SDS011;800;48.824;9.346;2023-03-31T00:33:48;5.53;;;1.73;;
1613;SDS011;800;48.824;9.346;2023-03-31T00:36:14;6.20;;;2.30;;
1613;SDS011;800;48.824;9.346;2023-03-31T00:38:45;3.10;;;1.73;;
1613;SDS011;800;48.824;9.346;2023-03-31T00:41:12;4.03;;;2.80;;
1613;SDS011;800;48.824;9.346;2023-03-31T00:43:38;7.00;;;2.03;;
1613;SDS011;800;48.824;9.346;2023-03-31T00:46:05;3.77;;;1.97;;
1613;SDS011;800;48.824;9.346;2023-03-31T00:48:47;3.80;;;2.17;;
1613;SDS011;800;48.824;9.346;2023-03-31T00:51:21;5.33;;;1.80;;
1613;SDS011;800;48.824;9.346;2023-03-31T00:53:58;6.23;;;1.83;;
1613;SDS011;800;48.824;9.346;2023-03-31T00:56:31;3.53;;;1.80;;
1613;SDS011;800;48.824;9.346;2023-03-31T00:59:05;4.23;;;1.67;;
1613;SDS011;800;48.824;9.346;2023-03-31T01:01:34;3.83;;;1.63;;
1613;SDS011;800;48.824;9.346;2023-03-31T01:04:04;7.83;;;2.10;;
1613;SDS011;800;48.824;9.346;2023-03-31T01:06:31;5.03;;;2.20;;
1613;SDS011;800;48.824;9.346;2023-03-31T01:08:57;5.07;;;2.00;;
1613;SDS011;800;48.824;9.346;2023-03-31T01:11:24;5.93;;;2.20;;
1613;SDS011;800;48.824;9.346;2023-03-31T01:13:54;3.70;;;2.00;;
1613;SDS011;800;48.824;9.346;2023-03-31T01:16:21;5.23;;;2.57;;
1613;SDS011;800;48.824;9.346;2023-03-31T01:18:47;5.00;;;2.10;;
1613;SDS011;800;48.824;9.346;2023-03-31T01:51:17;4.57;;;2.30;;
1613;SDS011;800;48.824;9.346;2023-03-31T01:53:54;3.90;;;2.13;;
1613;SDS011;800;48.824;9.346;2023-03-31T01:58:58;5.63;;;2.17;;
1613;SDS011;800;48.824;9.346;2023-03-31T02:01:31;2.87;;;2.47;;
1613;SDS011;800;48.824;9.346;2023-03-31T02:06:34;4.40;;;2.20;;
1613;SDS011;800;48.824;9.346;2023-03-31T02:09:12;2.83;;;2.07;;
1613;SDS011;800;48.824;9.346;2023-03-31T02:11:41;3.37;;;2.00;;
1613;SDS011;800;48.824;9.346;2023-03-31T02:14:09;6.10;;;2.27;;
1613;SDS011;800;48.824;9.346;2023-03-31T02:16:42;7.47;;;3.10;;
1613;SDS011;800;48.824;9.346;2023-03-31T02:19:11;7.50;;;2.10;;
1613;SDS011;800;48.824;9.346;2023-03-31T02:21:43;5.63;;;2.20;;
1613;SDS011;800;48.824;9.346;2023-03-31T02:24:12;4.27;;;2.00;;
1613;SDS011;800;48.824;9.346;2023-03-31T02:26:51;4.07;;;2.17;;
1613;SDS011;800;48.824;9.346;2023-03-31T02:29:36;5.37;;;2.10;;
1613;SDS011;800;48.824;9.346;2023-03-31T02:32:05;3.50;;;1.80;;
1613;SDS011;800;48.824;9.346;2023-03-31T02:34:36;8.30;;;2.23;;
1613;SDS011;800;48.824;9.346;2023-03-31T02:37:02;4.30;;;1.47;;
1613;SDS011;800;48.824;9.346;2023-03-31T02:39:29;3.97;;;2.00;;
1613;SDS011;800;48.824;9.346;2023-03-31T02:41:57;3.20;;;1.63;;
1613;SDS011;800;48.824;9.346;2023-03-31T02:44:26;4.63;;;1.93;;
1613;SDS011;800;48.824;9.346;2023-03-31T02:46:52;3.33;;;1.90;;
1613;SDS011;800;48.824;9.346;2023-03-31T02:49:18;4.00;;;2.07;;
1613;SDS011;800;48.824;9.346;2023-03-31T02:59:46;4.60;;;2.13;;
1613;SDS011;800;48.824;9.346;2023-03-31T03:11:04;6.10;;;1.93;;
1613;SDS011;800;48.824;9.346;2023-03-31T03:13:38;4.30;;;2.43;;
1613;SDS011;800;48.824;9.346;2023-03-31T03:19:02;4.33;;;2.23;;
1613;SDS011;800;48.824;9.346;2023-03-31T03:21:30;3.43;;;2.10;;
1613;SDS011;800;48.824;9.346;2023-03-31T03:23:56;4.83;;;2.77;;
1613;SDS011;800;48.824;9.346;2023-03-31T03:26:23;3.50;;;2.20;;
1613;SDS011;800;48.824;9.346;2023-03-31T03:28:52;3.70;;;2.67;;
1613;SDS011;800;48.824;9.346;2023-03-31T03:31:18;8.37;;;2.47;;
1613;SDS011;800;48.824;9.346;2023-03-31T03:33:44;5.13;;;2.07;;
1613;SDS011;800;48.824;9.346;2023-03-31T03:36:10;3.57;;;2.17;;
1613;SDS011;800;48.824;9.346;2023-03-31T03:38:36;4.50;;;2.60;;
1613;SDS011;800;48.824;9.346;2023-03-31T03:41:02;4.27;;;2.47;;
1613;SDS011;800;48.824;9.346;2023-03-31T03:43:28;5.57;;;2.10;;
1613;SDS011;800;48.824;9.346;2023-03-31T03:45:53;3.40;;;2.30;;
1613;SDS011;800;48.824;9.346;2023-03-31T03:48:19;1.97;;;1.63;;
1613;SDS011;800;48.824;9.346;2023-03-31T03:50:45;5.67;;;2.97;;
1613;SDS011;800;48.824;9.346;2023-03-31T03:53:11;4.23;;;1.97;;
1613;SDS011;800;48.824;9.346;2023-03-31T03:55:37;6.10;;;2.17;;
1613;SDS011;800;48.824;9.346;2023-03-31T03:58:03;4.07;;;2.20;;
1613;SDS011;800;48.824;9.346;2023-03-31T04:00:29;4.50;;;2.50;;
1613;SDS011;800;48.824;9.346;2023-03-31T04:02:55;2.30;;;2.10;;
1613;SDS011;800;48.824;9.346;2023-03-31T04:05:20;3.93;;;2.23;;
1613;SDS011;800;48.824;9.346;2023-03-31T04:07:46;4.83;;;2.47;;
1613;SDS011;800;48.824;9.346;2023-03-31T04:10:12;6.53;;;2.80;;
1613;SDS011;800;48.824;9.346;2023-03-31T04:12:38;4.90;;;2.97;;
1613;SDS011;800;48.824;9.346;2023-03-31T04:15:03;3.67;;;2.23;;
1613;SDS011;800;48.824;9.346;2023-03-31T04:17:29;3.80;;;2.33;;
1613;SDS011;800;48.824;9.346;2023-03-31T04:19:59;4.43;;;2.57;;
1613;SDS011;800;48.824;9.346;2023-03-31T04:22:30;4.90;;;2.80;;
1613;SDS011;800;48.824;9.346;2023-03-31T04:25:03;8.27;;;3.27;;
1613;SDS011;800;48.824;9.346;2023-03-31T04:27:34;6.43;;;3.97;;
1613;SDS011;800;48.824;9.346;2023-03-31T04:30:00;8.93;;;2.67;;
1613;SDS011;800;48.824;9.346;2023-03-31T04:32:25;6.00;;;2.70;;
1613;SDS011;800;48.824;9.346;2023-03-31T04:34:52;4.73;;;2.43;;
1613;SDS011;800;48.824;9.346;2023-03-31T04:37:27;6.67;;;3.33;;
1613;SDS011;800;48.824;9.346;2023-03-31T04:39:58;4.27;;;2.83;;
1613;SDS011;800;48.824;9.346;2023-03-31T04:42:32;5.23;;;3.70;;
1613;SDS011;800;48.824;9.346;2023-03-31T04:44:58;5.80;;;2.50;;
1613;SDS011;800;48.824;9.346;2023-03-31T04:47:23;4.47;;;3.07;;
1613;SDS011;800;48.824;9.346;2023-03-31T04:49:49;6.23;;;3.20;;
1613;SDS011;800;48.824;9.346;2023-03-31T04:52:14;5.30;;;2.97;;
1613;SDS011;800;48.824;9.346;2023-03-31T04:54:40;4.30;;;3.10;;
1613;SDS011;800;48.824;9.346;2023-03-31T04:57:05;11.53;;;3.80;;
1613;SDS011;800;48.824;9.346;2023-03-31T04:59:31;5.77;;;3.30;;
1613;SDS011;800;48.824;9.346;2023-03-31T05:01:57;4.00;;;2.80;;
1613;SDS011;800;48.824;9.346;2023-03-31T05:04:22;7.40;;;3.10;;
1613;SDS011;800;48.824;9.346;2023-03-31T05:06:48;6.67;;;4.23;;
1613;SDS011;800;48.824;9.346;2023-03-31T05:09:14;5.83;;;3.10;;
1613;SDS011;800;48.824;9.346;2023-03-31T05:11:40;6.73;;;3.37;;
1613;SDS011;800;48.824;9.346;2023-03-31T05:14:05;7.87;;;3.27;;
1613;SDS011;800;48.824;9.346;2023-03-31T05:16:31;8.07;;;3.97;;
1613;SDS011;800;48.824;9.346;2023-03-31T05:18:56;8.10;;;4.87;;
1613;SDS011;800;48.824;9.346;2023-03-31T05:21:22;7.50;;;4.70;;
1613;SDS011;800;48.824;9.346;2023-03-31T05:23:48;7.83;;;3.80;;
1613;SDS011;800;48.824;9.346;2023-03-31T05:26:14;4.20;;;2.93;;
1613;SDS011;800;48.824;9.346;2023-03-31T05:28:40;5.30;;;3.30;;
1613;SDS011;800;48.824;9.346;2023-03-31T05:31:06;5.73;;;3.10;;
1613;SDS011;800;48.824;9.346;2023-03-31T05:33:32;6.50;;;3.80;;
1613;SDS011;800;48.824;9.346;2023-03-31T05:36:04;7.80;;;4.33;;
1613;SDS011;800;48.824;9.346;2023-03-31T05:38:30;6.10;;;3.23;;
1613;SDS011;800;48.824;9.346;2023-03-31T05:40:57;7.20;;;4.17;;
1613;SDS011;800;48.824;9.346;2023-03-31T05:43:23;6.63;;;3.83;;
1613;SDS011;800;48.824;9.346;2023-03-31T05:45:48;7.40;;;3.83;;
1613;SDS011;800;48.824;9.346;2023-03-31T05:48:14;8.30;;;4.20;;
1613;SDS011;800;48.824;9.346;2023-03-31T05:50:39;5.67;;;3.80;;
1613;SDS011;800;48.824;9.346;2023-03-31T05:53:06;9.43;;;3.77;;
1613;SDS011;800;48.824;9.346;2023-03-31T05:55:34;7.07;;;4.23;;
1613;SDS011;800;48.824;9.346;2023-03-31T05:58:00;4.43;;;3.80;;
1613;SDS011;800;48.824;9.346;2023-03-31T06:00:26;9.53;;;3.97;;
1613;SDS011;800;48.824;9.346;2023-03-31T06:02:51;6.63;;;4.17;;
1613;SDS011;800;48.824;9.346;2023-03-31T06:05:18;8.07;;;4.73;;
1613;SDS011;800;48.824;9.346;2023-03-31T06:07:43;11.20;;;5.13;;
1613;SDS011;800;48.824;9.346;2023-03-31T06:10:09;11.53;;;5.30;;
1613;SDS011;800;48.824;9.346;2023-03-31T06:12:35;8.33;;;3.87;;
1613;SDS011;800;48.824;9.346;2023-03-31T06:15:01;6.57;;;4.57;;
1613;SDS011;800;48.824;9.346;2023-03-31T06:17:27;10.17;;;4.97;;
1613;SDS011;800;48.824;9.346;2023-03-31T06:19:53;7.30;;;4.83;;
1613;SDS011;800;48.824;9.346;2023-03-31T06:22:18;10.27;;;5.77;;
1613;SDS011;800;48.824;9.346;2023-03-31T06:24:45;10.23;;;5.30;;
1613;SDS011;800;48.824;9.346;2023-03-31T06:27:10;5.97;;;4.43;;
1613;SDS011;800;48.824;9.346;2023-03-31T06:29:36;6.60;;;4.80;;
1613;SDS011;800;48.824;9.346;2023-03-31T06:32:01;9.17;;;4.83;;
1613;SDS011;800;48.824;9.346;2023-03-31T06:34:28;9.80;;;4.30;;
1613;SDS011;800;48.824;9.346;2023-03-31T06:36:54;8.40;;;4.93;;
1613;SDS011;800;48.824;9.346;2023-03-31T06:39:20;7.97;;;4.60;;
1613;SDS011;800;48.824;9.346;2023-03-31T06:41:46;5.70;;;5.00;;
1613;SDS011;800;48.824;9.346;2023-03-31T06:44:11;8.20;;;4.13;;
1613;SDS011;800;48.824;9.346;2023-03-31T06:46:40;11.00;;;4.57;;
1613;SDS011;800;48.824;9.346;2023-03-31T06:49:06;9.53;;;5.37;;
1613;SDS011;800;48.824;9.346;2023-03-31T06:51:31;11.20;;;5.53;;
1613;SDS011;800;48.824;9.346;2023-03-31T06:53:57;11.93;;;5.07;;
1613;SDS011;800;48.824;9.346;2023-03-31T06:56:23;10.27;;;5.00;;
1613;SDS011;800;48.824;9.346;2023-03-31T06:58:48;7.90;;;5.10;;
1613;SDS011;800;48.824;9.346;2023-03-31T07:01:14;9.53;;;5.97;;
1613;SDS011;800;48.824;9.346;2023-03-31T07:03:40;10.53;;;5.50;;
1613;SDS011;800;48.824;9.346;2023-03-31T07:06:05;8.33;;;6.50;;
1613;SDS011;800;48.824;9.346;2023-03-31T07:08:31;7.37;;;5.00;;
1613;SDS011;800;48.824;9.346;2023-03-31T07:10:58;11.27;;;4.90;;
1613;SDS011;800;48.824;9.346;2023-03-31T07:13:25;6.70;;;4.57;;
1613;SDS011;800;48.824;9.346;2023-03-31T07:15:51;7.07;;;4.80;;
1613;SDS011;800;48.824;9.346;2023-03-31T07:18:17;8.30;;;4.30;;
1613;SDS011;800;48.824;9.346;2023-03-31T07:20:46;8.73;;;4.13;;
1613;SDS011;800;48.824;9.346;2023-03-31T07:23:14;10.03;;;3.80;;
1613;SDS011;800;48.824;9.346;2023-03-31T07:25:39;5.30;;;3.50;;
1613;SDS011;800;48.824;9.346;2023-03-31T07:28:05;6.80;;;4.53;;
1613;SDS011;800;48.824;9.346;2023-03-31T07:30:31;4.80;;;3.30;;
1613;SDS011;800;48.824;9.346;2023-03-31T07:32:57;9.20;;;3.37;;
1613;SDS011;800;48.824;9.346;2023-03-31T07:35:22;8.10;;;3.63;;
1613;SDS011;800;48.824;9.346;2023-03-31T07:37:48;4.53;;;3.40;;
1613;SDS011;800;48.824;9.346;2023-03-31T07:40:16;6.60;;;3.17;;
1613;SDS011;800;48.824;9.346;2023-03-31T07:42:46;4.23;;;3.00;;
1613;SDS011;800;48.824;9.346;2023-03-31T07:45:13;4.07;;;2.90;;
1613;SDS011;800;48.824;9.346;2023-03-31T07:47:40;3.53;;;2.70;;
1613;SDS011;800;48.824;9.346;2023-03-31T07:50:07;5.67;;;3.67;;
1613;SDS011;800;48.824;9.346;2023-03-31T07:52:33;4.00;;;2.83;;
1613;SDS011;800;48.824;9.346;2023-03-31T07:54:59;4.90;;;3.17;;
1613;SDS011;800;48.824;9.346;2023-03-31T07:57:24;3.70;;;2.53;;
1613;SDS011;800;48.824;9.346;2023-03-31T07:59:50;2.40;;;2.20;;
1613;SDS011;800;48.824;9.346;2023-03-31T08:02:16;4.83;;;2.10;;
1613;SDS011;800;48.824;9.346;2023-03-31T08:04:42;5.83;;;2.17;;
1613;SDS011;800;48.824;9.346;2023-03-31T08:07:09;2.17;;;1.97;;
1613;SDS011;800;48.824;9.346;2023-03-31T08:09:37;1.90;;;1.80;;
1613;SDS011;800;48.824;9.346;2023-03-31T08:12:03;2.10;;;1.50;;
1613;SDS011;800;48.824;9.346;2023-03-31T08:14:30;2.37;;;1.73;;
1613;SDS011;800;48.824;9.346;2023-03-31T08:16:56;2.77;;;1.60;;
1613;SDS011;800;48.824;9.346;2023-03-31T08:19:22;2.30;;;1.87;;
1613;SDS011;800;48.824;9.346;2023-03-31T08:21:48;1.80;;;1.30;;
1613;SDS011;800;48.824;9.346;2023-03-31T08:24:15;1.50;;;1.40;;
1613;SDS011;800;48.824;9.346;2023-03-31T08:26:40;4.30;;;1.90;;
1613;SDS011;800;48.824;9.346;2023-03-31T08:29:06;1.17;;;0.90;;
1613;SDS011;800;48.824;9.346;2023-03-31T08:31:32;2.80;;;1.50;;
1613;SDS011;800;48.824;9.346;2023-03-31T08:33:57;1.57;;;1.20;;
1613;SDS011;800;48.824;9.346;2023-03-31T08:36:23;1.40;;;1.00;;
1613;SDS011;800;48.824;9.346;2023-03-31T08:38:50;1.53;;;1.20;;
1613;SDS011;800;48.824;9.346;2023-03-31T08:44:25;1.20;;;1.10;;
1613;SDS011;800;48.824;9.346;2023-03-31T08:46:53;1.47;;;1.17;;
1613;SDS011;800;48.824;9.346;2023-03-31T08:49:21;1.60;;;1.30;;
1613;SDS011;800;48.824;9.346;2023-03-31T08:51:52;1.20;;;1.10;;
1613;SDS011;800;48.824;9.346;2023-03-31T08:57:19;3.20;;;1.90;;
1613;SDS011;800;48.824;9.346;2023-03-31T08:59:55;4.50;;;1.53;;
1613;SDS011;800;48.824;9.346;2023-03-31T09:02:37;1.30;;;1.20;;
1613;SDS011;800;48.824;9.346;2023-03-31T09:16:26;4.87;;;1.47;;
1613;SDS011;800;48.824;9.346;2023-03-31T09:19:00;2.50;;;1.50;;
1613;SDS011;800;48.824;9.346;2023-03-31T09:21:33;4.07;;;1.60;;
1613;SDS011;800;48.824;9.346;2023-03-31T09:29:06;4.00;;;1.67;;
1613;SDS011;800;48.824;9.346;2023-03-31T09:32:09;1.70;;;1.30;;
1613;SDS011;800;48.824;9.346;2023-03-31T09:34:43;2.30;;;1.50;;
1613;SDS011;800;48.824;9.346;2023-03-31T09:37:10;2.70;;;1.47;;
1613;SDS011;800;48.824;9.346;2023-03-31T09:39:37;3.67;;;1.60;;
1613;SDS011;800;48.824;9.346;2023-03-31T09:42:04;4.13;;;1.47;;
1613;SDS011;800;48.824;9.346;2023-03-31T09:47:00;2.70;;;1.30;;
1613;SDS011;800;48.824;9.346;2023-03-31T09:49:27;3.90;;;1.53;;
1613;SDS011;800;48.824;9.346;2023-03-31T09:52:42;2.97;;;1.10;;
1613;SDS011;800;48.824;9.346;2023-03-31T09:55:01;2.50;;;1.33;;
1613;SDS011;800;48.824;9.346;2023-03-31T09:57:31;4.00;;;1.63;;
1613;SDS011;800;48.824;9.346;2023-03-31T10:00:33;2.50;;;1.40;;
1613;SDS011;800;48.824;9.346;2023-03-31T10:02:55;7.00;;;1.60;;
1613;SDS011;800;48.824;9.346;2023-03-31T10:05:27;4.50;;;1.77;;
1613;SDS011;800;48.824;9.346;2023-03-31T10:10:36;5.03;;;1.60;;
1613;SDS011;800;48.824;9.346;2023-03-31T10:13:06;2.43;;;1.43;;
1613;SDS011;800;48.824;9.346;2023-03-31T10:15:37;3.97;;;1.97;;
1613;SDS011;800;48.824;9.346;2023-03-31T10:18:04;5.83;;;1.40;;
1613;SDS011;800;48.824;9.346;2023-03-31T10:20:36;2.47;;;1.83;;
1613;SDS011;800;48.824;9.346;2023-03-31T10:23:04;3.70;;;1.40;;
1613;SDS011;800;48.824;9.346;2023-03-31T10:25:40;3.73;;;1.53;;
1613;SDS011;800;48.824;9.346;2023-03-31T10:28:09;3.90;;;2.00;;
1613;SDS011;800;48.824;9.346;2023-03-31T10:30:39;4.47;;;1.30;;
1613;SDS011;800;48.824;9.346;2023-03-31T10:33:13;3.70;;;1.60;;
1613;SDS011;800;48.824;9.346;2023-03-31T10:35:41;9.27;;;1.87;;
1613;SDS011;800;48.824;9.346;2023-03-31T10:38:13;3.83;;;1.50;;
1613;SDS011;800;48.824;9.346;2023-03-31T10:40:50;3.97;;;1.83;;
1613;SDS011;800;48.824;9.346;2023-03-31T10:43:18;5.40;;;1.70;;
1613;SDS011;800;48.824;9.346;2023-03-31T10:45:50;3.80;;;1.60;;
1613;SDS011;800;48.824;9.346;2023-03-31T10:48:26;3.50;;;1.60;;
1613;SDS011;800;48.824;9.346;2023-03-31T10:50:59;3.33;;;1.30;;
1613;SDS011;800;48.824;9.346;2023-03-31T10:53:31;5.47;;;1.37;;
1613;SDS011;800;48.824;9.346;2023-03-31T11:04:09;3.83;;;1.73;;
1613;SDS011;800;48.824;9.346;2023-03-31T11:06:56;4.50;;;1.40;;
1613;SDS011;800;48.824;9.346;2023-03-31T11:12:41;4.00;;;1.60;;
1613;SDS011;800;48.824;9.346;2023-03-31T11:24:00;5.30;;;1.70;;
1613;SDS011;800;48.824;9.346;2023-03-31T11:33:49;2.07;;;1.10;;
1613;SDS011;800;48.824;9.346;2023-03-31T11:36:48;3.37;;;1.00;;
1613;SDS011;800;48.824;9.346;2023-03-31T11:39:28;2.50;;;1.20;;
1613;SDS011;800;48.824;9.346;2023-03-31T11:42:12;1.17;;;0.70;;
1613;SDS011;800;48.824;9.346;2023-03-31T11:44:45;2.20;;;0.93;;
1613;SDS011;800;48.824;9.346;2023-03-31T11:47:21;1.70;;;1.00;;
1613;SDS011;800;48.824;9.346;2023-03-31T11:49:58;2.33;;;0.90;;
1613;SDS011;800;48.824;9.346;2023-03-31T11:52:29;1.70;;;0.70;;
1613;SDS011;800;48.824;9.346;2023-03-31T11:54:59;1.40;;;0.93;;
1613;SDS011;800;48.824;9.346;2023-03-31T11:57:30;2.63;;;0.97;;
1613;SDS011;800;48.824;9.346;2023-03-31T12:00:10;3.73;;;0.90;;
1613;SDS011;800;48.824;9.346;2023-03-31T12:05:17;1.73;;;0.70;;
1613;SDS011;800;48.824;9.346;2023-03-31T12:07:51;1.80;;;0.90;;
1613;SDS011;800;48.824;9.346;2023-03-31T12:10:36;2.60;;;0.80;;
1613;SDS011;800;48.824;9.346;2023-03-31T12:18:56;1.13;;;0.70;;
1613;SDS011;800;48.824;9.346;2023-03-31T12:21:30;2.20;;;0.90;;
1613;SDS011;800;48.824;9.346;2023-03-31T12:23:58;1.43;;;0.70;;
1613;SDS011;800;48.824;9.346;2023-03-31T12:29:27;1.90;;;1.10;;
1613;SDS011;800;48.824;9.346;2023-03-31T12:31:56;1.97;;;0.80;;
1613;SDS011;800;48.824;9.346;2023-03-31T12:34:25;1.27;;;0.67;;
1613;SDS011;800;48.824;9.346;2023-03-31T12:37:07;3.20;;;1.13;;
1613;SDS011;800;48.824;9.346;2023-03-31T12:45:30;3.53;;;0.93;;
1613;SDS011;800;48.824;9.346;2023-03-31T12:51:01;0.90;;;0.70;;
1613;SDS011;800;48.824;9.346;2023-03-31T13:02:16;0.70;;;0.63;;
1613;SDS011;800;48.824;9.346;2023-03-31T13:04:46;1.77;;;0.93;;
1613;SDS011;800;48.824;9.346;2023-03-31T13:10:25;1.47;;;1.00;;
1613;SDS011;800;48.824;9.346;2023-03-31T13:15:28;1.63;;;1.17;;
1613;SDS011;800;48.824;9.346;2023-03-31T13:17:58;1.70;;;1.30;;
1613;SDS011;800;48.824;9.346;2023-03-31T13:20:36;1.17;;;0.70;;
1613;SDS011;800;48.824;9.346;2023-03-31T13:23:05;3.03;;;1.07;;
1613;SDS011;800;48.824;9.346;2023-03-31T13:25:33;2.03;;;1.03;;
1613;SDS011;800;48.824;9.346;2023-03-31T13:28:07;1.40;;;1.00;;
1613;SDS011;800;48.824;9.346;2023-03-31T13:33:13;0.80;;;0.63;;
1613;SDS011;800;48.824;9.346;2023-03-31T13:35:46;0.70;;;0.70;;
1613;SDS011;800;48.824;9.346;2023-03-31T13:41:18;2.13;;;0.90;;
1613;SDS011;800;48.824;9.346;2023-03-31T13:49:38;1.23;;;0.63;;
1613;SDS011;800;48.824;9.346;2023-03-31T13:55:46;3.03;;;0.67;;
1613;SDS011;800;48.824;9.346;2023-03-31T14:01:39;0.50;;;0.50;;
1613;SDS011;800;48.824;9.346;2023-03-31T14:07:06;1.47;;;0.70;;
1613;SDS011;800;48.824;9.346;2023-03-31T14:09:39;0.70;;;0.63;;
1613;SDS011;800;48.824;9.346;2023-03-31T14:12:21;0.80;;;0.60;;
1613;SDS011;800;48.824;9.346;2023-03-31T14:15:16;1.00;;;0.60;;
1613;SDS011;800;48.824;9.346;2023-03-31T14:17:43;0.70;;;0.50;;
1613;SDS011;800;48.824;9.346;2023-03-31T14:20:13;1.27;;;0.77;;
1613;SDS011;800;48.824;9.346;2023-03-31T14:28:23;1.73;;;0.80;;
1613;SDS011;800;48.824;9.346;2023-03-31T14:39:48;1.37;;;0.73;;
1613;SDS011;800;48.824;9.346;2023-03-31T14:42:17;2.10;;;0.70;;
1613;SDS011;800;48.824;9.346;2023-03-31T14:44:56;3.40;;;0.90;;
1613;SDS011;800;48.824;9.346;2023-03-31T14:47:26;0.80;;;0.70;;
1613;SDS011;800;48.824;9.346;2023-03-31T14:50:12;1.00;;;0.77;;
1613;SDS011;800;48.824;9.346;2023-03-31T14:52:44;1.33;;;0.80;;
1613;SDS011;800;48.824;9.346;2023-03-31T14:55:16;1.00;;;0.90;;
1613;SDS011;800;48.824;9.346;2023-03-31T14:57:46;2.07;;;0.70;;
1613;SDS011;800;48.824;9.346;2023-03-31T15:00:15;1.10;;;0.80;;
1613;SDS011;800;48.824;9.346;2023-03-31T15:02:50;1.00;;;0.70;;
1613;SDS011;800;48.824;9.346;2023-03-31T15:05:35;1.63;;;0.80;;
1613;SDS011;800;48.824;9.346;2023-03-31T15:08:02;1.47;;;1.00;;
1613;SDS011;800;48.824;9.346;2023-03-31T15:10:32;4.07;;;0.90;;
1613;SDS011;800;48.824;9.346;2023-03-31T15:13:09;6.40;;;0.93;;
1613;SDS011;800;48.824;9.346;2023-03-31T15:15:55;1.60;;;0.87;;
1613;SDS011;800;48.824;9.346;2023-03-31T15:18:24;1.27;;;0.50;;
1613;SDS011;800;48.824;9.346;2023-03-31T15:20:51;1.47;;;0.70;;
1613;SDS011;800;48.824;9.346;2023-03-31T15:23:24;1.23;;;0.60;;
1613;SDS011;800;48.824;9.346;2023-03-31T15:25:58;1.30;;;1.00;;
1613;SDS011;800;48.824;9.346;2023-03-31T15:28:29;1.17;;;0.70;;
1613;SDS011;800;48.824;9.346;2023-03-31T15:31:00;0.87;;;0.70;;
1613;SDS011;800;48.824;9.346;2023-03-31T15:33:33;2.60;;;1.00;;
1613;SDS011;800;48.824;9.346;2023-03-31T15:36:05;2.40;;;0.80;;
1613;SDS011;800;48.824;9.346;2023-03-31T15:38:32;2.37;;;0.80;;
1613;SDS011;800;48.824;9.346;2023-03-31T15:40:58;1.87;;;0.97;;
1613;SDS011;800;48.824;9.346;2023-03-31T15:43:31;2.63;;;0.70;;
1613;SDS011;800;48.824;9.346;2023-03-31T15:46:24;2.17;;;0.67;;
1613;SDS011;800;48.824;9.346;2023-03-31T15:49:19;2.40;;;0.97;;
1613;SDS011;800;48.824;9.346;2023-03-31T15:51:47;2.30;;;1.10;;
1613;SDS011;800;48.824;9.346;2023-03-31T15:57:10;4.03;;;0.90;;
1613;SDS011;800;48.824;9.346;2023-03-31T15:59:45;1.37;;;0.80;;
1613;SDS011;800;48.824;9.346;2023-03-31T16:02:16;0.80;;;0.80;;
1613;SDS011;800;48.824;9.346;2023-03-31T16:04:49;3.47;;;0.90;;
1613;SDS011;800;48.824;9.346;2023-03-31T16:07:22;3.83;;;1.00;;
1613;SDS011;800;48.824;9.346;2023-03-31T16:12:32;1.60;;;0.90;;
1613;SDS011;800;48.824;9.346;2023-03-31T16:22:51;4.30;;;1.10;;
1613;SDS011;800;48.824;9.346;2023-03-31T16:25:19;1.90;;;1.27;;
1613;SDS011;800;48.824;9.346;2023-03-31T16:27:50;1.20;;;1.10;;
1613;SDS011;800;48.824;9.346;2023-03-31T16:30:20;2.10;;;0.80;;
1613;SDS011;800;48.824;9.346;2023-03-31T16:32:57;2.97;;;1.50;;
1613;SDS011;800;48.824;9.346;2023-03-31T16:38:04;3.57;;;1.67;;
1613;SDS011;800;48.824;9.346;2023-03-31T16:40:34;2.10;;;1.00;;
1613;SDS011;800;48.824;9.346;2023-03-31T16:43:11;1.53;;;0.60;;
1613;SDS011;800;48.824;9.346;2023-03-31T16:45:45;1.83;;;0.90;;
1613;SDS011;800;48.824;9.346;2023-03-31T16:48:12;2.20;;;1.00;;
1613;SDS011;800;48.824;9.346;2023-03-31T16:50:40;5.37;;;1.00;;
1613;SDS011;800;48.824;9.346;2023-03-31T16:53:06;6.57;;;1.00;;
1613;SDS011;800;48.824;9.346;2023-03-31T16:55:32;1.40;;;0.73;;
1613;SDS011;800;48.824;9.346;2023-03-31T16:57:58;1.30;;;0.83;;
1613;SDS011;800;48.824;9.346;2023-03-31T17:00:30;2.00;;;1.00;;
1613;SDS011;800;48.824;9.346;2023-03-31T17:02:59;0.90;;;0.80;;
1613;SDS011;800;48.824;9.346;2023-03-31T17:05:25;1.53;;;0.60;;
1613;SDS011;800;48.824;9.346;2023-03-31T17:07:52;5.00;;;0.80;;
1613;SDS011;800;48.824;9.346;2023-03-31T17:10:18;0.73;;;0.60;;
1613;SDS011;800;48.824;9.346;2023-03-31T17:12:44;1.37;;;0.60;;
1613;SDS011;800;48.824;9.346;2023-03-31T17:15:09;1.17;;;0.60;;
1613;SDS011;800;48.824;9.346;2023-03-31T17:17:35;1.53;;;0.60;;
1613;SDS011;800;48.824;9.346;2023-03-31T17:20:02;1.53;;;0.70;;
1613;SDS011;800;48.824;9.346;2023-03-31T17:22:28;1.43;;;0.60;;
1613;SDS011;800;48.824;9.346;2023-03-31T17:24:54;4.10;;;0.70;;
1613;SDS011;800;48.824;9.346;2023-03-31T17:27:22;1.27;;;0.70;;
1613;SDS011;800;48.824;9.346;2023-03-31T17:29:49;0.70;;;0.70;;
1613;SDS011;800;48.824;9.346;2023-03-31T17:32:15;0.73;;;0.70;;
1613;SDS011;800;48.824;9.346;2023-03-31T17:34:41;1.73;;;0.90;;
1613;SDS011;800;48.824;9.346;2023-03-31T17:37:07;2.10;;;0.83;;
1613;SDS011;800;48.824;9.346;2023-03-31T17:39:33;1.73;;;1.10;;
1613;SDS011;800;48.824;9.346;2023-03-31T17:41:58;1.00;;;0.90;;
1613;SDS011;800;48.824;9.346;2023-03-31T17:44:24;1.57;;;1.00;;
1613;SDS011;800;48.824;9.346;2023-03-31T17:46:50;3.40;;;1.07;;
1613;SDS011;800;48.824;9.346;2023-03-31T17:49:15;3.17;;;1.10;;
1613;SDS011;800;48.824;9.346;2023-03-31T17:51:41;1.00;;;0.83;;
1613;SDS011;800;48.824;9.346;2023-03-31T17:54:08;2.33;;;1.40;;
1613;SDS011;800;48.824;9.346;2023-03-31T17:56:35;2.60;;;0.90;;
1613;SDS011;800;48.824;9.346;2023-03-31T17:59:01;2.30;;;0.90;;
1613;SDS011;800;48.824;9.346;2023-03-31T18:01:27;2.30;;;0.90;;
1613;SDS011;800;48.824;9.346;2023-03-31T18:03:56;3.07;;;1.10;;
1613;SDS011;800;48.824;9.346;2023-03-31T18:06:22;2.80;;;0.73;;
1613;SDS011;800;48.824;9.346;2023-03-31T18:08:48;5.87;;;1.13;;
1613;SDS011;800;48.824;9.346;2023-03-31T18:11:14;1.03;;;0.90;;
1613;SDS011;800;48.824;9.346;2023-03-31T18:13:40;3.67;;;1.10;;
1613;SDS011;800;48.824;9.346;2023-03-31T18:16:07;2.27;;;0.83;;
1613;SDS011;800;48.824;9.346;2023-03-31T18:18:34;1.53;;;0.73;;
1613;SDS011;800;48.824;9.346;2023-03-31T18:21:03;1.20;;;1.00;;
1613;SDS011;800;48.824;9.346;2023-03-31T18:23:31;4.20;;;1.17;;
1613;SDS011;800;48.824;9.346;2023-03-31T18:25:57;3.10;;;1.40;;
1613;SDS011;800;48.824;9.346;2023-03-31T18:28:23;3.80;;;1.47;;
1613;SDS011;800;48.824;9.346;2023-03-31T18:30:49;3.47;;;1.80;;
1613;SDS011;800;48.824;9.346;2023-03-31T18:33:15;2.90;;;1.50;;
1613;SDS011;800;48.824;9.346;2023-03-31T18:35:40;2.63;;;2.00;;
1613;SDS011;800;48.824;9.346;2023-03-31T18:38:06;4.90;;;2.00;;
1613;SDS011;800;48.824;9.346;2023-03-31T18:40:33;1.17;;;1.00;;
1613;SDS011;800;48.824;9.346;2023-03-31T18:43:00;3.10;;;1.33;;
1613;SDS011;800;48.824;9.346;2023-03-31T18:45:26;2.50;;;1.37;;
1613;SDS011;800;48.824;9.346;2023-03-31T18:47:52;2.83;;;2.30;;
1613;SDS011;800;48.824;9.346;2023-03-31T18:50:18;3.23;;;1.97;;
1613;SDS011;800;48.824;9.346;2023-03-31T18:52:45;4.43;;;2.00;;
1613;SDS011;800;48.824;9.346;2023-03-31T18:55:11;4.00;;;2.27;;
1613;SDS011;800;48.824;9.346;2023-03-31T18:57:36;2.80;;;1.50;;
1613;SDS011;800;48.824;9.346;2023-03-31T19:00:02;2.67;;;1.17;;